Time;durP1;ratioP1;P1;durP2;ratioP2;P2;SDS_P1;SDS_P2;PMS_P1;PMS_P2;Temp;Humidity;BMP_temperature;BMP_pressure;BME280_temperature;BME280_humidity;BME280_pressure;Samples;Min_cycle;Max_cycle;Signal;HPM_P1;HPM_P2
2021/10/10 00:01:44;;;;;;;;;35.00;31.25;;;;;;;;5058310;28;11578;-78
2021/10/10 00:04:11;;;;;;;;;37.00;37.00;;;;;;;;5057827;28;11531;-76
2021/10/10 00:06:39;;;;;;;;;44.25;37.25;;;;;;;;5061306;28;11565;-86
2021/10/10 00:09:06;;;;;;;;;43.50;37.75;;;;;;;;5064298;28;11634;-81
2021/10/10 00:11:34;;;;;;;;;49.50;42.25;;;;;;;;5062634;28;11765;-85
2021/10/10 00:14:01;;;;;;;;;44.50;38.75;;;;;;;;5062274;28;11639;-72
2021/10/10 00:16:29;;;;;;;;;35.25;32.00;;;;;;;;5062065;28;11545;-76
2021/10/10 00:18:58;;;;;;;;;33.00;33.00;;;;;;;;5062283;28;11590;-75
2021/10/10 00:21:25;;;;;;;;;33.25;31.25;;;;;;;;5062366;28;11594;-79
2021/10/10 00:23:52;;;;;;;;;39.50;36.50;;;;;;;;5063351;28;11656;-74
2021/10/10 00:26:20;;;;;;;;;44.75;37.50;;;;;;;;5063244;28;11575;-74
2021/10/10 00:28:47;;;;;;;;;41.75;38.75;;;;;;;;5060838;28;11647;-74
2021/10/10 00:31:15;;;;;;;;;40.00;37.00;;;;;;;;5061984;28;11641;-75
2021/10/10 00:33:42;;;;;;;;;49.50;41.00;;;;;;;;5060250;28;11581;-81
2021/10/10 00:36:11;;;;;;;;;47.25;40.25;;;;;;;;5057704;28;12411;-74
2021/10/10 00:38:38;;;;;;;;;42.75;40.50;;;;;;;;5062354;28;11545;-73
2021/10/10 00:41:06;;;;;;;;;43.75;38.25;;;;;;;;5042460;28;11560;-76
2021/10/10 00:43:33;;;;;;;;;42.50;38.00;;;;;;;;5062312;28;11560;-72
2021/10/10 00:46:01;;;;;;;;;41.00;37.75;;;;;;;;5055469;28;12353;-76
2021/10/10 00:48:29;;;;;;;;;38.75;38.25;;;;;;;;5055276;28;11613;-74
2021/10/10 00:50:56;;;;;;;;;42.75;39.00;;;;;;;;5044002;28;11679;-82
2021/10/10 00:53:26;;;;;;;;;39.75;36.75;;;;;;;;5065699;28;11565;-86
2021/10/10 00:55:54;;;;;;;;;37.00;32.25;;;;;;;;5063328;28;11694;-78
2021/10/10 00:58:23;;;;;;;;;41.25;35.25;;;;;;;;5067591;28;11551;-78
2021/10/10 01:00:52;;;;;;;;;33.50;31.00;;;;;;;;5064612;28;11525;-74
2021/10/10 01:03:20;;;;;;;;;29.50;29.00;;;;;;;;5062742;28;11657;-75
2021/10/10 01:05:48;;;;;;;;;38.00;31.75;;;;;;;;5065568;28;11530;-79
2021/10/10 01:08:16;;;;;;;;;35.25;33.50;;;;;;;;5047002;28;11557;-75
2021/10/10 01:10:45;;;;;;;;;32.25;32.25;;;;;;;;5066973;28;11576;-75
2021/10/10 01:13:14;;;;;;;;;35.50;32.25;;;;;;;;5065435;28;11551;-73
2021/10/10 01:15:41;;;;;;;;;36.50;34.25;;;;;;;;5066204;28;12391;-83
2021/10/10 01:18:09;;;;;;;;;35.00;29.75;;;;;;;;5064109;28;11572;-75
2021/10/10 01:20:44;;;;;;;;;32.00;29.00;;;;;;;;5064852;28;11680;-77
2021/10/10 01:23:12;;;;;;;;;35.25;32.75;;;;;;;;5042297;28;11545;-74
2021/10/10 01:25:39;;;;;;;;;20.75;18.00;;;;;;;;5064555;28;12502;-85
2021/10/10 01:28:07;;;;;;;;;36.00;34.00;;;;;;;;5066330;28;12439;-80
2021/10/10 01:30:34;;;;;;;;;24.25;24.25;;;;;;;;5063640;28;11496;-74
2021/10/10 01:33:02;;;;;;;;;39.25;32.25;;;;;;;;5067214;28;11550;-75
2021/10/10 01:35:29;;;;;;;;;30.75;30.75;;;;;;;;5064632;28;11665;-79
2021/10/10 01:37:58;;;;;;;;;34.25;30.50;;;;;;;;5065104;28;11568;-75
2021/10/10 01:40:25;;;;;;;;;37.50;33.25;;;;;;;;5065945;28;11674;-77
2021/10/10 01:42:53;;;;;;;;;33.50;32.25;;;;;;;;5062454;28;11544;-74
2021/10/10 01:45:22;;;;;;;;;32.00;30.25;;;;;;;;5064241;28;11545;-78
2021/10/10 01:47:49;;;;;;;;;30.75;30.50;;;;;;;;5063534;28;11544;-76
2021/10/10 01:50:17;;;;;;;;;33.50;29.00;;;;;;;;5065978;28;11658;-79
2021/10/10 01:52:46;;;;;;;;;25.75;25.50;;;;;;;;5065524;28;11519;-82
2021/10/10 01:55:14;;;;;;;;;28.50;25.50;;;;;;;;5064999;28;11669;-79
2021/10/10 01:57:42;;;;;;;;;28.75;28.00;;;;;;;;5065729;28;11556;-77
2021/10/10 02:00:11;;;;;;;;;30.00;27.25;;;;;;;;5063230;28;11557;-80
2021/10/10 02:02:38;;;;;;;;;31.50;31.50;;;;;;;;5065854;28;11739;-74
2021/10/10 02:05:07;;;;;;;;;28.00;25.50;;;;;;;;5061849;28;11570;-75
2021/10/10 02:07:34;;;;;;;;;31.50;28.25;;;;;;;;5046666;28;11555;-75
2021/10/10 02:10:02;;;;;;;;;26.00;24.00;;;;;;;;5046444;28;11564;-81
2021/10/10 02:12:31;;;;;;;;;44.00;38.25;;;;;;;;5045713;28;12333;-82
2021/10/10 02:14:58;;;;;;;;;26.75;22.50;;;;;;;;5065346;28;11583;-77
2021/10/10 02:17:26;;;;;;;;;30.00;28.00;;;;;;;;5061887;28;11552;-81
2021/10/10 02:19:53;;;;;;;;;31.25;29.25;;;;;;;;5065762;28;11549;-78
2021/10/10 02:22:21;;;;;;;;;31.00;25.25;;;;;;;;5064823;28;11623;-75
2021/10/10 02:24:48;;;;;;;;;29.50;29.25;;;;;;;;5064372;28;11547;-82
2021/10/10 02:27:16;;;;;;;;;32.25;26.00;;;;;;;;5046262;28;11572;-76
2021/10/10 02:29:44;;;;;;;;;22.25;22.25;;;;;;;;5066284;28;12364;-79
2021/10/10 02:32:12;;;;;;;;;34.50;31.75;;;;;;;;5064142;28;11475;-74
2021/10/10 02:34:39;;;;;;;;;36.00;32.75;;;;;;;;5057363;28;11613;-76
2021/10/10 02:37:07;;;;;;;;;34.75;30.75;;;;;;;;5064206;28;11560;-81
2021/10/10 02:39:34;;;;;;;;;32.00;26.75;;;;;;;;5062334;28;11642;-82
2021/10/10 02:42:01;;;;;;;;;40.75;35.25;;;;;;;;5060123;28;11548;-78
2021/10/10 02:44:29;;;;;;;;;38.75;37.00;;;;;;;;5062474;28;11634;-75
2021/10/10 02:46:57;;;;;;;;;41.50;40.00;;;;;;;;5063594;28;12351;-76
2021/10/10 02:49:25;;;;;;;;;38.75;34.75;;;;;;;;5045499;28;11667;-77
2021/10/10 02:51:52;;;;;;;;;40.50;39.00;;;;;;;;5063093;28;11592;-80
2021/10/10 02:54:19;;;;;;;;;44.25;36.50;;;;;;;;5065537;28;11552;-84
2021/10/10 02:56:47;;;;;;;;;48.25;40.25;;;;;;;;5061472;28;11572;-78
2021/10/10 02:59:14;;;;;;;;;32.00;31.00;;;;;;;;5064832;28;11559;-75
2021/10/10 03:01:41;;;;;;;;;37.00;32.75;;;;;;;;5062128;28;11481;-78
2021/10/10 03:04:10;;;;;;;;;33.25;29.25;;;;;;;;5062857;28;11581;-76
2021/10/10 03:06:37;;;;;;;;;30.25;30.00;;;;;;;;5062786;28;11622;-74
2021/10/10 03:09:05;;;;;;;;;33.50;31.00;;;;;;;;5062405;28;11735;-77
2021/10/10 03:11:32;;;;;;;;;31.50;29.50;;;;;;;;5059948;28;11566;-82
2021/10/10 03:13:59;;;;;;;;;34.00;32.25;;;;;;;;5062890;28;11611;-76
2021/10/10 03:16:26;;;;;;;;;33.25;32.50;;;;;;;;5063876;28;11587;-78
2021/10/10 03:18:53;;;;;;;;;38.25;32.50;;;;;;;;5061792;28;11548;-73
2021/10/10 03:21:22;;;;;;;;;34.50;29.50;;;;;;;;5063248;28;12363;-78
2021/10/10 03:23:49;;;;;;;;;28.00;28.00;;;;;;;;5063450;28;11623;-78
2021/10/10 03:26:17;;;;;;;;;34.50;32.50;;;;;;;;5064372;28;12362;-86
2021/10/10 03:28:44;;;;;;;;;25.75;25.25;;;;;;;;5063788;28;11590;-84
2021/10/10 03:31:11;;;;;;;;;42.25;38.00;;;;;;;;5057980;28;11510;-78
2021/10/10 03:33:38;;;;;;;;;35.50;34.25;;;;;;;;5061035;28;11571;-84
2021/10/10 03:36:07;;;;;;;;;40.50;32.75;;;;;;;;5043958;28;11589;-80
2021/10/10 03:38:35;;;;;;;;;30.75;30.75;;;;;;;;5061237;28;11582;-78
2021/10/10 03:41:03;;;;;;;;;33.75;32.50;;;;;;;;5061051;28;11729;-76
2021/10/10 03:43:30;;;;;;;;;29.50;29.50;;;;;;;;5060884;28;11581;-78
2021/10/10 03:45:57;;;;;;;;;21.00;21.00;;;;;;;;5062554;28;11635;-81
2021/10/10 03:48:24;;;;;;;;;34.00;30.00;;;;;;;;5060736;28;11517;-75
2021/10/10 03:50:52;;;;;;;;;31.00;26.75;;;;;;;;5059710;28;12381;-74
2021/10/10 03:53:21;;;;;;;;;32.25;32.25;;;;;;;;5060314;28;11619;-74
2021/10/10 03:55:51;;;;;;;;;26.50;24.25;;;;;;;;5045353;28;11554;-74
2021/10/10 03:58:20;;;;;;;;;30.50;28.75;;;;;;;;5059274;28;11584;-75
2021/10/10 04:00:48;;;;;;;;;34.25;31.50;;;;;;;;5062726;28;11658;-82
2021/10/10 04:03:17;;;;;;;;;34.50;27.75;;;;;;;;5062336;28;11550;-77
2021/10/10 04:05:45;;;;;;;;;28.75;26.75;;;;;;;;5059684;28;11555;-75
2021/10/10 04:08:13;;;;;;;;;33.00;29.50;;;;;;;;5063954;28;11530;-76
2021/10/10 04:10:40;;;;;;;;;32.25;30.00;;;;;;;;5061935;28;11602;-82
2021/10/10 04:13:09;;;;;;;;;25.50;25.00;;;;;;;;5063473;28;11545;-81
2021/10/10 04:15:37;;;;;;;;;27.50;27.25;;;;;;;;5062357;28;11574;-82
2021/10/10 04:18:05;;;;;;;;;24.00;24.00;;;;;;;;5062389;28;11583;-79
2021/10/10 04:20:33;;;;;;;;;30.25;28.75;;;;;;;;5053291;28;11538;-77
2021/10/10 04:23:00;;;;;;;;;28.00;26.25;;;;;;;;5062730;28;11682;-85
2021/10/10 04:25:28;;;;;;;;;25.50;20.75;;;;;;;;5063580;28;11556;-80
2021/10/10 04:27:55;;;;;;;;;33.00;29.50;;;;;;;;5061221;28;11673;-81
2021/10/10 04:30:24;;;;;;;;;30.75;26.75;;;;;;;;5062446;28;11558;-80
2021/10/10 04:32:51;;;;;;;;;33.50;29.00;;;;;;;;5061912;28;11566;-80
2021/10/10 04:35:18;;;;;;;;;26.50;22.50;;;;;;;;5062018;28;11636;-77
2021/10/10 04:37:45;;;;;;;;;28.00;27.25;;;;;;;;5061381;28;11557;-80
2021/10/10 04:40:13;;;;;;;;;31.50;28.25;;;;;;;;5063128;28;11545;-81
2021/10/10 04:42:40;;;;;;;;;29.75;28.25;;;;;;;;5062202;28;11521;-84
2021/10/10 04:45:08;;;;;;;;;25.25;25.25;;;;;;;;5061602;28;12301;-82
2021/10/10 04:47:37;;;;;;;;;23.50;23.50;;;;;;;;5063874;28;12684;-83
2021/10/10 04:50:05;;;;;;;;;31.75;27.00;;;;;;;;5059873;28;11575;-80
2021/10/10 04:52:32;;;;;;;;;20.75;19.25;;;;;;;;5060915;28;11561;-80
2021/10/10 04:55:00;;;;;;;;;27.00;24.50;;;;;;;;5062704;28;11773;-78
2021/10/10 04:57:27;;;;;;;;;26.50;26.50;;;;;;;;5060501;28;11622;-76
2021/10/10 04:59:54;;;;;;;;;19.75;19.75;;;;;;;;5060106;28;11650;-76
2021/10/10 05:02:23;;;;;;;;;28.00;26.00;;;;;;;;5060156;28;11491;-75
2021/10/10 05:04:52;;;;;;;;;26.25;23.00;;;;;;;;5062430;28;11553;-76
2021/10/10 05:07:20;;;;;;;;;26.25;22.00;;;;;;;;5060689;28;11706;-75
2021/10/10 05:09:47;;;;;;;;;24.00;22.00;;;;;;;;5058006;28;12451;-82
2021/10/10 05:12:15;;;;;;;;;26.75;19.00;;;;;;;;5059449;28;11683;-78
2021/10/10 05:14:43;;;;;;;;;19.00;17.25;;;;;;;;5062284;28;11693;-80
2021/10/10 05:17:10;;;;;;;;;21.50;21.50;;;;;;;;5061726;28;11538;-80
2021/10/10 05:19:37;;;;;;;;;26.00;21.75;;;;;;;;5062166;28;11539;-77
2021/10/10 05:22:06;;;;;;;;;25.25;23.25;;;;;;;;5028663;28;11545;-79
2021/10/10 05:24:34;;;;;;;;;23.25;23.25;;;;;;;;5059985;28;11586;-81
2021/10/10 05:27:04;;;;;;;;;23.75;23.50;;;;;;;;5065580;28;11582;-83
2021/10/10 05:29:32;;;;;;;;;32.00;22.75;;;;;;;;5062451;28;11531;-75
2021/10/10 05:31:59;;;;;;;;;25.00;20.75;;;;;;;;5060390;28;11585;-81
2021/10/10 05:34:26;;;;;;;;;12.25;12.25;;;;;;;;5061949;28;11635;-82
2021/10/10 05:36:55;;;;;;;;;24.25;22.00;;;;;;;;5061571;28;11542;-82
2021/10/10 05:39:23;;;;;;;;;21.25;21.00;;;;;;;;5062882;28;11618;-74
2021/10/10 05:41:51;;;;;;;;;23.50;21.50;;;;;;;;5063534;28;11594;-77
2021/10/10 05:44:18;;;;;;;;;18.00;18.00;;;;;;;;5067008;28;11623;-74
2021/10/10 05:46:46;;;;;;;;;28.50;26.25;;;;;;;;5064799;28;11543;-81
2021/10/10 05:49:13;;;;;;;;;24.50;24.50;;;;;;;;5032055;28;11546;-74
2021/10/10 05:51:44;;;;;;;;;23.75;22.50;;;;;;;;5063623;28;11544;-77
2021/10/10 05:54:13;;;;;;;;;25.25;21.00;;;;;;;;5065301;28;11589;-74
2021/10/10 05:56:42;;;;;;;;;25.25;21.75;;;;;;;;5064908;28;11516;-80
2021/10/10 05:59:11;;;;;;;;;25.00;23.50;;;;;;;;5063538;28;11530;-86
2021/10/10 06:01:39;;;;;;;;;25.75;25.25;;;;;;;;5063339;28;12322;-78
2021/10/10 06:04:06;;;;;;;;;23.50;19.25;;;;;;;;5059481;28;11631;-78
2021/10/10 06:06:34;;;;;;;;;22.75;20.75;;;;;;;;5062611;28;11547;-83
2021/10/10 06:09:03;;;;;;;;;19.00;17.00;;;;;;;;5061614;28;11660;-84
2021/10/10 06:11:30;;;;;;;;;27.75;21.75;;;;;;;;5062047;28;11584;-76
2021/10/10 06:14:00;;;;;;;;;27.25;22.50;;;;;;;;5042838;28;12211;-77
2021/10/10 06:16:28;;;;;;;;;34.50;27.75;;;;;;;;5062179;28;11680;-76
2021/10/10 06:18:55;;;;;;;;;34.25;34.25;;;;;;;;5064368;28;11563;-76
2021/10/10 06:21:23;;;;;;;;;33.25;30.75;;;;;;;;5064625;28;11575;-78
2021/10/10 06:23:50;;;;;;;;;34.00;31.25;;;;;;;;5065179;28;11551;-78
2021/10/10 06:26:17;;;;;;;;;26.00;24.25;;;;;;;;5064600;28;11640;-79
2021/10/10 06:28:45;;;;;;;;;31.75;30.25;;;;;;;;5064811;28;11602;-77
2021/10/10 06:31:14;;;;;;;;;29.50;24.00;;;;;;;;5062153;28;11500;-79
2021/10/10 06:33:41;;;;;;;;;32.50;32.25;;;;;;;;5064739;28;11560;-76
2021/10/10 06:36:08;;;;;;;;;31.75;29.75;;;;;;;;5061106;28;11549;-80
2021/10/10 06:38:36;;;;;;;;;30.50;26.75;;;;;;;;5058795;28;11537;-76
2021/10/10 06:41:03;;;;;;;;;30.75;29.50;;;;;;;;5064847;28;11627;-75
2021/10/10 06:43:31;;;;;;;;;33.50;30.50;;;;;;;;5064166;28;11550;-80
2021/10/10 06:45:58;;;;;;;;;40.50;36.50;;;;;;;;5046739;28;11677;-76
2021/10/10 06:48:27;;;;;;;;;33.75;32.75;;;;;;;;5065558;28;11561;-75
2021/10/10 06:50:54;;;;;;;;;35.75;33.00;;;;;;;;5063082;28;12323;-77
2021/10/10 06:53:22;;;;;;;;;30.50;27.75;;;;;;;;5047507;28;11532;-78
2021/10/10 06:55:49;;;;;;;;;41.00;35.00;;;;;;;;5063180;28;12436;-76
2021/10/10 06:58:18;;;;;;;;;27.50;27.50;;;;;;;;5064574;28;11709;-76
2021/10/10 07:00:45;;;;;;;;;31.00;30.00;;;;;;;;5062333;28;11533;-77
2021/10/10 07:03:13;;;;;;;;;40.50;34.75;;;;;;;;5038931;28;11768;-74
2021/10/10 07:05:42;;;;;;;;;29.75;27.50;;;;;;;;5068962;28;11605;-82
2021/10/10 07:08:10;;;;;;;;;52.50;38.75;;;;;;;;5063243;28;12351;-78
2021/10/10 07:10:37;;;;;;;;;35.50;31.25;;;;;;;;5059683;28;11533;-78
2021/10/10 07:13:05;;;;;;;;;37.00;31.25;;;;;;;;5043272;28;11571;-76
2021/10/10 07:15:33;;;;;;;;;39.00;37.75;;;;;;;;5057969;28;11679;-77
2021/10/10 07:18:02;;;;;;;;;34.00;34.00;;;;;;;;5054814;28;11638;-78
2021/10/10 07:20:47;;;;;;;;;25.00;23.00;;;;;;;;5060992;28;11620;-74
2021/10/10 07:23:28;;;;;;;;;36.75;35.75;;;;;;;;5061156;28;11650;-80
2021/10/10 07:25:55;;;;;;;;;39.00;36.00;;;;;;;;5058941;28;11699;-80
2021/10/10 07:28:23;;;;;;;;;34.75;33.75;;;;;;;;5060570;28;11588;-76
2021/10/10 07:30:50;;;;;;;;;39.00;36.00;;;;;;;;5040348;28;11572;-82
2021/10/10 07:33:18;;;;;;;;;33.00;28.75;;;;;;;;5061617;28;11608;-82
2021/10/10 07:35:46;;;;;;;;;28.75;22.75;;;;;;;;5055912;28;11562;-77
2021/10/10 07:38:13;;;;;;;;;35.00;31.50;;;;;;;;5060299;28;11706;-75
2021/10/10 07:40:41;;;;;;;;;42.75;37.50;;;;;;;;5060593;28;12373;-76
2021/10/10 07:43:09;;;;;;;;;36.00;31.00;;;;;;;;5055192;28;11651;-75
2021/10/10 07:45:41;;;;;;;;;46.00;38.75;;;;;;;;5058507;28;11775;-75
2021/10/10 07:48:09;;;;;;;;;44.25;37.50;;;;;;;;5062469;28;11606;-75
2021/10/10 07:50:36;;;;;;;;;41.00;39.50;;;;;;;;5060624;28;11574;-73
2021/10/10 07:53:04;;;;;;;;;34.00;34.00;;;;;;;;5058242;28;11587;-75
2021/10/10 07:55:31;;;;;;;;;21.00;20.50;;;;;;;;5061423;28;11586;-74
2021/10/10 07:58:00;;;;;;;;;38.50;36.00;;;;;;;;5057112;28;11537;-73
2021/10/10 08:00:30;;;;;;;;;37.75;34.50;;;;;;;;5059427;28;11473;-75
2021/10/10 08:02:58;;;;;;;;;34.00;30.75;;;;;;;;5058970;28;11471;-77
2021/10/10 08:05:29;;;;;;;;;44.00;41.00;;;;;;;;5056896;28;11509;-74
2021/10/10 08:07:57;;;;;;;;;37.50;36.50;;;;;;;;5060890;28;11523;-74
2021/10/10 08:10:25;;;;;;;;;43.50;38.00;;;;;;;;5057779;28;11546;-75
2021/10/10 08:12:52;;;;;;;;;40.25;36.50;;;;;;;;5058484;28;11506;-75
2021/10/10 08:15:21;;;;;;;;;41.00;39.25;;;;;;;;5056425;28;11638;-75
2021/10/10 08:17:48;;;;;;;;;40.00;38.50;;;;;;;;5056554;28;11570;-75
2021/10/10 08:20:16;;;;;;;;;37.00;35.25;;;;;;;;5058075;28;12253;-75
2021/10/10 08:22:45;;;;;;;;;37.75;33.75;;;;;;;;5056852;28;11521;-75
2021/10/10 08:25:14;;;;;;;;;29.75;25.75;;;;;;;;5061653;28;11516;-76
2021/10/10 08:27:42;;;;;;;;;43.25;33.75;;;;;;;;5059366;28;11645;-75
2021/10/10 08:30:12;;;;;;;;;37.75;33.50;;;;;;;;5057743;28;11510;-78
2021/10/10 08:32:41;;;;;;;;;38.00;36.25;;;;;;;;5058249;28;11551;-76
2021/10/10 08:35:10;;;;;;;;;39.00;36.75;;;;;;;;5058879;28;12795;-75
2021/10/10 08:37:37;;;;;;;;;38.25;36.75;;;;;;;;5058356;28;11599;-76
2021/10/10 08:40:06;;;;;;;;;37.75;35.75;;;;;;;;5055219;28;11631;-76
2021/10/10 08:42:36;;;;;;;;;43.75;41.00;;;;;;;;5056761;28;11525;-73
2021/10/10 08:45:07;;;;;;;;;37.50;34.75;;;;;;;;5056001;28;11479;-75
2021/10/10 08:47:41;;;;;;;;;38.00;31.75;;;;;;;;5058905;28;11293;-75
2021/10/10 08:50:15;;;;;;;;;31.00;31.00;;;;;;;;5057725;28;11102;-76
2021/10/10 08:52:43;;;;;;;;;44.25;41.00;;;;;;;;5059695;28;11524;-76
2021/10/10 08:55:10;;;;;;;;;59.00;49.00;;;;;;;;5060311;28;11494;-75
2021/10/10 08:57:38;;;;;;;;;41.25;36.00;;;;;;;;5054043;28;11710;-74
2021/10/10 09:00:11;;;;;;;;;44.50;38.50;;;;;;;;5055380;28;11209;-73
2021/10/10 09:02:40;;;;;;;;;39.75;38.25;;;;;;;;5056629;28;11311;-72
2021/10/10 09:05:10;;;;;;;;;35.25;34.25;;;;;;;;5056053;28;11374;-72
2021/10/10 09:07:38;;;;;;;;;36.50;34.75;;;;;;;;5056211;28;11980;-73
2021/10/10 09:10:20;;;;;;;;;40.75;35.50;;;;;;;;5056530;28;11259;-78
2021/10/10 09:12:48;;;;;;;;;38.50;34.00;;;;;;;;5058697;28;10870;-77
2021/10/10 09:15:19;;;;;;;;;40.00;35.00;;;;;;;;5061764;28;10849;-79
2021/10/10 09:17:54;;;;;;;;;34.75;32.75;;;;;;;;5056140;28;10997;-75
2021/10/10 09:20:30;;;;;;;;;42.50;36.75;;;;;;;;5060111;28;10931;-74
2021/10/10 09:22:57;;;;;;;;;40.00;36.50;;;;;;;;5062245;28;11078;-75
2021/10/10 09:25:25;;;;;;;;;44.50;37.25;;;;;;;;5063641;28;11887;-71
2021/10/10 09:27:52;;;;;;;;;36.50;36.00;;;;;;;;5044824;28;10842;-76
2021/10/10 09:30:22;;;;;;;;;40.75;36.00;;;;;;;;5062331;28;11040;-75
2021/10/10 09:32:54;;;;;;;;;35.50;34.50;;;;;;;;5063211;28;10830;-74
2021/10/10 09:35:29;;;;;;;;;33.00;28.00;;;;;;;;5060729;28;10500;-73
2021/10/10 09:38:09;;;;;;;;;42.25;35.75;;;;;;;;5063438;28;10421;-73
2021/10/10 09:40:41;;;;;;;;;40.00;37.00;;;;;;;;5062651;28;11266;-74
2021/10/10 09:43:09;;;;;;;;;37.50;35.25;;;;;;;;5064106;28;10604;-77
2021/10/10 09:45:53;;;;;;;;;35.50;35.25;;;;;;;;5045777;28;10642;-74
2021/10/10 09:48:32;;;;;;;;;40.50;35.00;;;;;;;;5059484;28;10488;-72
2021/10/10 09:51:00;;;;;;;;;47.50;39.00;;;;;;;;5056105;28;11277;-74
2021/10/10 09:53:32;;;;;;;;;35.25;34.75;;;;;;;;5067824;28;10557;-73
2021/10/10 09:56:03;;;;;;;;;46.50;38.00;;;;;;;;5060385;28;10267;-77
2021/10/10 09:58:37;;;;;;;;;32.00;31.75;;;;;;;;5059757;28;10450;-77
2021/10/10 10:01:15;;;;;;;;;40.50;37.25;;;;;;;;5057016;28;10133;-74
2021/10/10 10:04:00;;;;;;;;;47.75;37.00;;;;;;;;5057575;28;10137;-73
2021/10/10 10:06:31;;;;;;;;;33.75;32.50;;;;;;;;5060658;28;10173;-77
2021/10/10 10:09:02;;;;;;;;;30.25;27.00;;;;;;;;5061236;28;9954;-73
2021/10/10 10:11:31;;;;;;;;;37.75;36.75;;;;;;;;5062183;28;10032;-74
2021/10/10 10:14:01;;;;;;;;;36.75;33.25;;;;;;;;5064001;28;10068;-73
2021/10/10 10:16:30;;;;;;;;;49.50;41.50;;;;;;;;5059479;28;10091;-74
2021/10/10 10:18:59;;;;;;;;;40.00;35.25;;;;;;;;5061477;28;10671;-74
2021/10/10 10:21:30;;;;;;;;;47.75;39.25;;;;;;;;5061052;28;10539;-74
2021/10/10 10:24:00;;;;;;;;;36.25;33.75;;;;;;;;5062354;28;9487;-73
2021/10/10 10:26:31;;;;;;;;;34.33;32.33;;;;;;;;5062337;28;10278;-73
2021/10/10 10:29:01;;;;;;;;;36.67;35.67;;;;;;;;5061808;28;9255;-73
2021/10/10 10:31:30;;;;;;;;;42.00;36.67;;;;;;;;5062427;28;9293;-76
2021/10/10 10:34:22;;;;;;;;;35.50;33.00;;;;;;;;5063779;28;9102;-71
2021/10/10 10:37:00;;;;;;;;;35.00;32.75;;;;;;;;5061937;28;8856;-72
2021/10/10 10:39:37;;;;;;;;;38.75;33.50;;;;;;;;5060271;28;8875;-72
2021/10/10 10:42:06;;;;;;;;;36.50;33.00;;;;;;;;5057478;28;8884;-73
2021/10/10 10:44:37;;;;;;;;;26.75;26.75;;;;;;;;5061116;28;8899;-72
2021/10/10 10:47:06;;;;;;;;;33.00;30.50;;;;;;;;5061033;28;8863;-73
2021/10/10 10:50:02;;;;;;;;;45.00;35.00;;;;;;;;5040632;28;8894;-72
2021/10/10 10:52:34;;;;;;;;;33.50;29.50;;;;;;;;5028106;28;8894;-72
2021/10/10 10:55:17;;;;;;;;;33.50;32.75;;;;;;;;5062503;28;8868;-72
2021/10/10 10:57:51;;;;;;;;;32.25;32.00;;;;;;;;5057221;28;8900;-71
2021/10/10 11:00:27;;;;;;;;;33.00;32.00;;;;;;;;5056990;28;9708;-72
2021/10/10 11:03:08;;;;;;;;;34.00;32.00;;;;;;;;5062370;28;8864;-72
2021/10/10 11:05:45;;;;;;;;;33.25;31.00;;;;;;;;5058295;28;9049;-72
2021/10/10 11:08:38;;;;;;;;;30.75;29.00;;;;;;;;5061603;28;8904;-73
2021/10/10 11:11:20;;;;;;;;;34.00;32.00;;;;;;;;5059953;28;8868;-73
2021/10/10 11:13:52;;;;;;;;;29.50;28.25;;;;;;;;5061737;28;8979;-74
2021/10/10 11:16:21;;;;;;;;;31.50;31.00;;;;;;;;5061418;28;8880;-74
2021/10/10 11:18:52;;;;;;;;;29.00;27.25;;;;;;;;5061957;28;8903;-75
2021/10/10 11:21:21;;;;;;;;;35.50;33.25;;;;;;;;5061470;28;8858;-75
2021/10/10 11:23:51;;;;;;;;;34.25;32.00;;;;;;;;5060833;28;8906;-74
2021/10/10 11:26:19;;;;;;;;;34.75;33.50;;;;;;;;5057377;28;8870;-74
2021/10/10 11:28:49;;;;;;;;;37.50;33.50;;;;;;;;5062989;28;8957;-74
2021/10/10 11:31:18;;;;;;;;;38.50;35.25;;;;;;;;5062621;28;8793;-74
2021/10/10 11:33:47;;;;;;;;;40.00;32.50;;;;;;;;5063861;28;9606;-76
2021/10/10 11:36:15;;;;;;;;;38.75;33.75;;;;;;;;5058185;28;9761;-75
2021/10/10 11:39:05;;;;;;;;;35.50;33.50;;;;;;;;5061056;28;9602;-75
2021/10/10 11:41:44;;;;;;;;;34.00;31.00;;;;;;;;5056812;28;8840;-73
2021/10/10 11:44:13;;;;;;;;;44.50;37.50;;;;;;;;5059093;28;8859;-74
2021/10/10 11:46:43;;;;;;;;;44.00;34.50;;;;;;;;5062898;28;8864;-74
2021/10/10 11:49:35;;;;;;;;;34.50;32.00;;;;;;;;5060260;28;8910;-75
2021/10/10 11:52:25;;;;;;;;;36.50;31.00;;;;;;;;5057746;28;8971;-74
2021/10/10 11:54:59;;;;;;;;;43.00;36.75;;;;;;;;5054960;28;8894;-73
2021/10/10 11:57:27;;;;;;;;;42.00;36.25;;;;;;;;5059192;28;8844;-74
2021/10/10 11:59:57;;;;;;;;;42.00;35.00;;;;;;;;5062925;28;8862;-77
2021/10/10 12:02:25;;;;;;;;;44.50;39.00;;;;;;;;5060657;28;8805;-76
2021/10/10 12:05:02;;;;;;;;;37.25;34.50;;;;;;;;5058071;28;8856;-75
2021/10/10 12:07:30;;;;;;;;;39.00;34.25;;;;;;;;5058179;28;8858;-75
2021/10/10 12:09:59;;;;;;;;;45.25;38.00;;;;;;;;5060994;28;8899;-76
2021/10/10 12:12:27;;;;;;;;;43.00;37.50;;;;;;;;5059031;28;8963;-75
2021/10/10 12:14:56;;;;;;;;;43.25;36.25;;;;;;;;5057661;28;8884;-75
2021/10/10 12:17:28;;;;;;;;;44.50;37.50;;;;;;;;5060170;28;8987;-76
2021/10/10 12:19:55;;;;;;;;;46.75;38.00;;;;;;;;5055221;28;8872;-75
2021/10/10 12:22:22;;;;;;;;;43.50;36.25;;;;;;;;5063183;28;9484;-75
2021/10/10 12:24:50;;;;;;;;;47.50;40.00;;;;;;;;5061358;28;8871;-75
2021/10/10 12:27:29;;;;;;;;;48.50;39.75;;;;;;;;5060521;28;8861;-75
2021/10/10 12:29:58;;;;;;;;;47.50;40.50;;;;;;;;5060899;28;8856;-72
2021/10/10 12:32:27;;;;;;;;;47.00;39.00;;;;;;;;5054160;28;8864;-73
2021/10/10 12:35:15;;;;;;;;;48.50;39.00;;;;;;;;5060688;28;9679;-72
2021/10/10 12:37:50;;;;;;;;;46.00;39.50;;;;;;;;5058721;28;8876;-74
2021/10/10 12:40:29;;;;;;;;;47.25;40.25;;;;;;;;5060671;28;8943;-73
2021/10/10 12:42:59;;;;;;;;;50.25;42.75;;;;;;;;5062569;28;8878;-76
2021/10/10 12:45:31;;;;;;;;;46.00;38.50;;;;;;;;5052719;28;8903;-76
2021/10/10 12:48:03;;;;;;;;;47.00;39.75;;;;;;;;5062415;28;8957;-75
2021/10/10 12:50:31;;;;;;;;;53.50;43.75;;;;;;;;5056676;28;8868;-74
2021/10/10 12:52:59;;;;;;;;;52.50;42.00;;;;;;;;5059883;28;8890;-75
2021/10/10 12:55:29;;;;;;;;;49.25;40.75;;;;;;;;5063516;28;9415;-73
2021/10/10 12:57:59;;;;;;;;;62.00;50.00;;;;;;;;5059023;28;8884;-74
2021/10/10 13:00:27;;;;;;;;;56.25;45.00;;;;;;;;5055505;28;8816;-75
2021/10/10 13:02:55;;;;;;;;;52.50;44.25;;;;;;;;5059461;28;8864;-74
2021/10/10 13:05:22;;;;;;;;;55.25;45.75;;;;;;;;5064135;28;8844;-74
2021/10/10 13:07:49;;;;;;;;;50.50;42.00;;;;;;;;5061523;28;8887;-73
2021/10/10 13:10:17;;;;;;;;;53.75;44.00;;;;;;;;5064537;28;8848;-74
2021/10/10 13:12:45;;;;;;;;;52.75;42.25;;;;;;;;5062861;28;8872;-74
2021/10/10 13:15:13;;;;;;;;;51.75;43.50;;;;;;;;5055827;28;8873;-73
2021/10/10 13:17:41;;;;;;;;;50.50;42.00;;;;;;;;5045681;28;8876;-74
2021/10/10 13:20:10;;;;;;;;;49.50;40.50;;;;;;;;5062576;28;8876;-76
2021/10/10 13:22:38;;;;;;;;;50.00;42.75;;;;;;;;5062962;28;8845;-74
2021/10/10 13:25:07;;;;;;;;;50.00;42.00;;;;;;;;5064293;28;9010;-73
2021/10/10 13:27:36;;;;;;;;;52.75;43.00;;;;;;;;5064158;28;8856;-74
2021/10/10 13:30:04;;;;;;;;;39.75;35.25;;;;;;;;5044273;28;8868;-74
2021/10/10 13:32:33;;;;;;;;;61.25;48.75;;;;;;;;5062056;28;8942;-73
2021/10/10 13:35:03;;;;;;;;;60.25;47.50;;;;;;;;5064589;28;8866;-74
2021/10/10 13:37:32;;;;;;;;;57.00;48.00;;;;;;;;5060280;28;8914;-74
2021/10/10 13:40:00;;;;;;;;;56.25;46.00;;;;;;;;5064487;28;8860;-73
2021/10/10 13:42:27;;;;;;;;;54.50;44.00;;;;;;;;5060384;28;8891;-75
2021/10/10 13:44:54;;;;;;;;;55.00;45.00;;;;;;;;5062784;28;8860;-75
2021/10/10 13:47:21;;;;;;;;;48.00;41.00;;;;;;;;5062069;28;8861;-74
2021/10/10 13:49:53;;;;;;;;;43.00;37.40;;;;;;;;5061520;28;9661;-73
2021/10/10 13:52:20;;;;;;;;;47.50;40.00;;;;;;;;5059880;28;8876;-74
2021/10/10 13:54:47;;;;;;;;;50.00;41.50;;;;;;;;5063286;28;8883;-74
2021/10/10 13:57:14;;;;;;;;;48.00;40.75;;;;;;;;5063499;28;8943;-75
2021/10/10 13:59:42;;;;;;;;;49.50;42.50;;;;;;;;5037768;28;9683;-74
2021/10/10 14:36:51;;;;;;;;;46.75;39.00;;;;;;;;5067954;28;8848;-77
2021/10/10 14:39:20;;;;;;;;;48.25;40.75;;;;;;;;5017588;28;8996;-74
2021/10/10 14:41:51;;;;;;;;;48.75;41.75;;;;;;;;5011783;28;8898;-75
2021/10/10 14:44:25;;;;;;;;;49.00;40.00;;;;;;;;5021602;28;8872;-75
2021/10/10 14:47:03;;;;;;;;;48.75;40.50;;;;;;;;5019659;28;8879;-74
2021/10/10 14:49:31;;;;;;;;;49.75;40.75;;;;;;;;5022600;28;10277;-75
2021/10/10 14:51:58;;;;;;;;;45.25;38.75;;;;;;;;5021450;28;8832;-75
2021/10/10 14:54:27;;;;;;;;;47.75;37.75;;;;;;;;5021008;28;8882;-74
2021/10/10 14:56:56;;;;;;;;;47.75;40.00;;;;;;;;5022516;28;8894;-75
2021/10/10 14:59:24;;;;;;;;;45.00;38.00;;;;;;;;5022332;28;8872;-75
2021/10/10 15:01:51;;;;;;;;;48.00;38.50;;;;;;;;5023862;28;8952;-77
2021/10/10 15:04:18;;;;;;;;;48.50;39.50;;;;;;;;5019106;28;8934;-75
2021/10/10 15:06:46;;;;;;;;;49.50;41.00;;;;;;;;5020923;28;9018;-76
2021/10/10 15:09:14;;;;;;;;;47.00;37.75;;;;;;;;5017353;28;8906;-74